sensor_id;sensor_type;location;lat;lon;timestamp;temperature;humidity
73322;DHT22;61549;37.044;22.128;2022-09-03T00:13:35;28.50;47.10
73322;DHT22;61549;37.044;22.128;2022-09-03T00:16:07;28.60;47.40
73322;DHT22;61549;37.044;22.128;2022-09-03T00:18:42;28.60;46.80
73322;DHT22;61549;37.044;22.128;2022-09-03T00:21:16;28.50;47.20
73322;DHT22;61549;37.044;22.128;2022-09-03T00:23:46;28.50;47.00
73322;DHT22;61549;37.044;22.128;2022-09-03T00:31:39;28.30;47.50
73322;DHT22;61549;37.044;22.128;2022-09-03T00:36:46;28.20;48.00
73322;DHT22;61549;37.044;22.128;2022-09-03T00:39:18;28.20;47.70
73322;DHT22;61549;37.044;22.128;2022-09-03T00:48:01;28.00;48.00
73322;DHT22;61549;37.044;22.128;2022-09-03T00:53:43;28.00;48.30
73322;DHT22;61549;37.044;22.128;2022-09-03T00:56:42;27.90;48.40
73322;DHT22;61549;37.044;22.128;2022-09-03T01:05:14;27.90;48.10
73322;DHT22;61549;37.044;22.128;2022-09-03T01:10:59;27.90;47.80
73322;DHT22;61549;37.044;22.128;2022-09-03T01:13:40;27.90;48.20
73322;DHT22;61549;37.044;22.128;2022-09-03T01:35:29;27.50;48.70
73322;DHT22;61549;37.044;22.128;2022-09-03T01:41:13;27.50;48.90
73322;DHT22;61549;37.044;22.128;2022-09-03T01:46:41;27.40;49.50
73322;DHT22;61549;37.044;22.128;2022-09-03T01:49:22;27.50;49.20
73322;DHT22;61549;37.044;22.128;2022-09-03T01:52:24;27.50;49.40
73322;DHT22;61549;37.044;22.128;2022-09-03T01:58:04;27.40;48.70
73322;DHT22;61549;37.044;22.128;2022-09-03T02:00:32;27.40;48.80
73322;DHT22;61549;37.044;22.128;2022-09-03T02:03:03;27.40;48.10
73322;DHT22;61549;37.044;22.128;2022-09-03T02:05:30;27.50;48.10
73322;DHT22;61549;37.044;22.128;2022-09-03T02:08:07;27.50;48.20
73322;DHT22;61549;37.044;22.128;2022-09-03T02:10:48;27.50;48.00
73322;DHT22;61549;37.044;22.128;2022-09-03T02:15:47;27.50;48.10
73322;DHT22;61549;37.044;22.128;2022-09-03T02:18:19;27.50;48.00
73322;DHT22;61549;37.044;22.128;2022-09-03T02:20:46;27.60;48.00
73322;DHT22;61549;37.044;22.128;2022-09-03T02:23:13;27.60;48.10
73322;DHT22;61549;37.044;22.128;2022-09-03T02:25:47;27.60;48.00
73322;DHT22;61549;37.044;22.128;2022-09-03T02:28:15;27.60;48.60
73322;DHT22;61549;37.044;22.128;2022-09-03T02:30:41;27.50;48.50
73322;DHT22;61549;37.044;22.128;2022-09-03T02:33:08;27.50;48.40
73322;DHT22;61549;37.044;22.128;2022-09-03T02:35:34;27.50;48.30
73322;DHT22;61549;37.044;22.128;2022-09-03T02:38:15;27.50;48.80
73322;DHT22;61549;37.044;22.128;2022-09-03T02:40:41;27.50;48.30
73322;DHT22;61549;37.044;22.128;2022-09-03T02:43:16;27.50;48.50
73322;DHT22;61549;37.044;22.128;2022-09-03T02:45:47;27.50;48.80
73322;DHT22;61549;37.044;22.128;2022-09-03T02:48:19;27.50;48.50
73322;DHT22;61549;37.044;22.128;2022-09-03T02:50:47;27.40;48.40
73322;DHT22;61549;37.044;22.128;2022-09-03T02:53:13;27.40;48.60
73322;DHT22;61549;37.044;22.128;2022-09-03T02:55:39;27.40;48.70
73322;DHT22;61549;37.044;22.128;2022-09-03T02:58:05;27.40;48.90
73322;DHT22;61549;37.044;22.128;2022-09-03T03:00:31;27.40;49.10
73322;DHT22;61549;37.044;22.128;2022-09-03T03:02:57;27.40;49.20
73322;DHT22;61549;37.044;22.128;2022-09-03T03:05:43;27.40;49.30
73322;DHT22;61549;37.044;22.128;2022-09-03T03:08:10;27.30;49.30
73322;DHT22;61549;37.044;22.128;2022-09-03T03:10:40;27.40;49.40
73322;DHT22;61549;37.044;22.128;2022-09-03T03:13:07;27.40;49.40
73322;DHT22;61549;37.044;22.128;2022-09-03T03:15:33;27.40;49.30
73322;DHT22;61549;37.044;22.128;2022-09-03T03:17:59;27.40;49.40
73322;DHT22;61549;37.044;22.128;2022-09-03T03:20:24;27.50;49.60
73322;DHT22;61549;37.044;22.128;2022-09-03T03:22:50;27.50;49.50
73322;DHT22;61549;37.044;22.128;2022-09-03T03:25:16;27.50;49.60
73322;DHT22;61549;37.044;22.128;2022-09-03T03:27:42;27.50;49.80
73322;DHT22;61549;37.044;22.128;2022-09-03T03:30:09;27.50;49.90
73322;DHT22;61549;37.044;22.128;2022-09-03T03:32:36;27.50;50.50
73322;DHT22;61549;37.044;22.128;2022-09-03T03:35:03;27.50;50.00
73322;DHT22;61549;37.044;22.128;2022-09-03T03:37:30;27.50;50.10
73322;DHT22;61549;37.044;22.128;2022-09-03T03:39:56;27.50;50.20
73322;DHT22;61549;37.044;22.128;2022-09-03T03:42:21;27.50;50.30
73322;DHT22;61549;37.044;22.128;2022-09-03T03:44:47;27.50;50.30
73322;DHT22;61549;37.044;22.128;2022-09-03T03:47:13;27.50;50.80
73322;DHT22;61549;37.044;22.128;2022-09-03T03:49:42;27.40;50.80
73322;DHT22;61549;37.044;22.128;2022-09-03T03:52:08;27.50;50.80
73322;DHT22;61549;37.044;22.128;2022-09-03T03:54:34;27.50;51.30
73322;DHT22;61549;37.044;22.128;2022-09-03T03:57:00;27.50;51.30
73322;DHT22;61549;37.044;22.128;2022-09-03T03:59:26;27.50;50.90
73322;DHT22;61549;37.044;22.128;2022-09-03T04:01:55;27.40;50.80
73322;DHT22;61549;37.044;22.128;2022-09-03T04:04:21;27.50;50.80
73322;DHT22;61549;37.044;22.128;2022-09-03T04:06:46;27.50;51.20
73322;DHT22;61549;37.044;22.128;2022-09-03T04:09:12;27.40;51.10
73322;DHT22;61549;37.044;22.128;2022-09-03T04:11:38;27.40;51.40
73322;DHT22;61549;37.044;22.128;2022-09-03T04:14:04;27.40;51.20
73322;DHT22;61549;37.044;22.128;2022-09-03T04:16:30;27.50;51.20
73322;DHT22;61549;37.044;22.128;2022-09-03T04:18:59;27.50;51.10
73322;DHT22;61549;37.044;22.128;2022-09-03T04:21:28;27.60;51.10
73322;DHT22;61549;37.044;22.128;2022-09-03T04:23:54;27.60;51.10
73322;DHT22;61549;37.044;22.128;2022-09-03T04:26:28;27.60;51.50
73322;DHT22;61549;37.044;22.128;2022-09-03T04:29:06;27.70;51.60
73322;DHT22;61549;37.044;22.128;2022-09-03T04:31:33;27.70;51.30
73322;DHT22;61549;37.044;22.128;2022-09-03T04:34:00;27.70;51.10
73322;DHT22;61549;37.044;22.128;2022-09-03T04:36:29;27.70;50.90
73322;DHT22;61549;37.044;22.128;2022-09-03T04:38:58;27.70;50.60
73322;DHT22;61549;37.044;22.128;2022-09-03T04:41:28;27.70;50.10
73322;DHT22;61549;37.044;22.128;2022-09-03T04:43:56;27.80;50.10
73322;DHT22;61549;37.044;22.128;2022-09-03T04:46:26;27.70;49.90
73322;DHT22;61549;37.044;22.128;2022-09-03T04:48:57;27.70;50.60
73322;DHT22;61549;37.044;22.128;2022-09-03T04:51:25;27.70;50.90
73322;DHT22;61549;37.044;22.128;2022-09-03T04:53:57;27.70;51.10
73322;DHT22;61549;37.044;22.128;2022-09-03T04:56:26;27.70;50.90
73322;DHT22;61549;37.044;22.128;2022-09-03T04:59:04;27.60;51.40
73322;DHT22;61549;37.044;22.128;2022-09-03T05:01:32;27.60;51.60
73322;DHT22;61549;37.044;22.128;2022-09-03T05:03:58;27.60;51.60
73322;DHT22;61549;37.044;22.128;2022-09-03T05:06:28;27.70;51.80
73322;DHT22;61549;37.044;22.128;2022-09-03T05:08:55;27.80;51.90
73322;DHT22;61549;37.044;22.128;2022-09-03T05:11:22;27.80;52.20
73322;DHT22;61549;37.044;22.128;2022-09-03T05:13:49;27.80;52.40
73322;DHT22;61549;37.044;22.128;2022-09-03T05:16:17;27.90;52.50
73322;DHT22;61549;37.044;22.128;2022-09-03T05:18:44;27.90;52.30
73322;DHT22;61549;37.044;22.128;2022-09-03T05:21:12;28.00;52.70
73322;DHT22;61549;37.044;22.128;2022-09-03T05:23:40;28.00;52.90
73322;DHT22;61549;37.044;22.128;2022-09-03T05:26:09;28.00;52.60
73322;DHT22;61549;37.044;22.128;2022-09-03T05:28:37;28.10;52.30
73322;DHT22;61549;37.044;22.128;2022-09-03T05:31:09;28.20;52.40
73322;DHT22;61549;37.044;22.128;2022-09-03T05:33:36;28.20;51.40
73322;DHT22;61549;37.044;22.128;2022-09-03T05:36:04;28.20;50.60
73322;DHT22;61549;37.044;22.128;2022-09-03T05:38:30;28.30;50.00
73322;DHT22;61549;37.044;22.128;2022-09-03T05:41:05;28.30;50.00
73322;DHT22;61549;37.044;22.128;2022-09-03T05:43:32;28.20;50.10
73322;DHT22;61549;37.044;22.128;2022-09-03T05:45:59;28.20;50.60
73322;DHT22;61549;37.044;22.128;2022-09-03T05:48:26;28.20;50.80
73322;DHT22;61549;37.044;22.128;2022-09-03T05:51:06;27.90;51.00
73322;DHT22;61549;37.044;22.128;2022-09-03T05:53:34;27.90;51.40
73322;DHT22;61549;37.044;22.128;2022-09-03T05:56:04;27.90;51.70
73322;DHT22;61549;37.044;22.128;2022-09-03T05:58:38;28.00;51.50
73322;DHT22;61549;37.044;22.128;2022-09-03T06:01:12;28.10;51.40
73322;DHT22;61549;37.044;22.128;2022-09-03T06:03:39;28.30;51.30
73322;DHT22;61549;37.044;22.128;2022-09-03T06:06:06;28.40;51.40
73322;DHT22;61549;37.044;22.128;2022-09-03T06:08:33;28.40;51.40
73322;DHT22;61549;37.044;22.128;2022-09-03T06:10:59;28.50;51.60
73322;DHT22;61549;37.044;22.128;2022-09-03T06:13:26;28.60;51.80
73322;DHT22;61549;37.044;22.128;2022-09-03T06:15:56;28.70;51.00
73322;DHT22;61549;37.044;22.128;2022-09-03T06:18:24;28.80;51.00
73322;DHT22;61549;37.044;22.128;2022-09-03T06:20:55;28.80;50.40
73322;DHT22;61549;37.044;22.128;2022-09-03T06:23:22;28.70;51.20
73322;DHT22;61549;37.044;22.128;2022-09-03T06:25:58;28.90;51.70
73322;DHT22;61549;37.044;22.128;2022-09-03T06:28:24;29.10;51.40
73322;DHT22;61549;37.044;22.128;2022-09-03T06:30:52;29.20;51.40
73322;DHT22;61549;37.044;22.128;2022-09-03T06:33:18;29.40;51.20
73322;DHT22;61549;37.044;22.128;2022-09-03T06:35:44;29.50;51.30
73322;DHT22;61549;37.044;22.128;2022-09-03T06:38:11;29.40;50.90
73322;DHT22;61549;37.044;22.128;2022-09-03T06:40:38;29.50;50.60
73322;DHT22;61549;37.044;22.128;2022-09-03T06:43:04;29.80;50.40
73322;DHT22;61549;37.044;22.128;2022-09-03T06:45:30;30.00;49.80
73322;DHT22;61549;37.044;22.128;2022-09-03T06:47:56;30.20;49.40
73322;DHT22;61549;37.044;22.128;2022-09-03T06:50:22;30.30;49.20
73322;DHT22;61549;37.044;22.128;2022-09-03T06:52:52;30.40;49.30
73322;DHT22;61549;37.044;22.128;2022-09-03T06:55:21;30.50;48.90
73322;DHT22;61549;37.044;22.128;2022-09-03T06:57:47;30.70;49.10
73322;DHT22;61549;37.044;22.128;2022-09-03T07:00:14;31.00;49.10
73322;DHT22;61549;37.044;22.128;2022-09-03T07:02:40;31.20;47.60
73322;DHT22;61549;37.044;22.128;2022-09-03T07:05:07;31.20;48.00
73322;DHT22;61549;37.044;22.128;2022-09-03T07:07:33;31.40;48.50
73322;DHT22;61549;37.044;22.128;2022-09-03T07:09:59;31.60;47.20
73322;DHT22;61549;37.044;22.128;2022-09-03T07:12:26;31.80;47.10
73322;DHT22;61549;37.044;22.128;2022-09-03T07:14:52;32.00;47.30
73322;DHT22;61549;37.044;22.128;2022-09-03T07:17:18;32.20;46.60
73322;DHT22;61549;37.044;22.128;2022-09-03T07:19:43;32.50;46.60
73322;DHT22;61549;37.044;22.128;2022-09-03T07:22:09;32.70;45.90
73322;DHT22;61549;37.044;22.128;2022-09-03T07:24:36;32.70;46.70
73322;DHT22;61549;37.044;22.128;2022-09-03T07:27:02;32.80;47.10
73322;DHT22;61549;37.044;22.128;2022-09-03T07:29:30;32.80;47.30
73322;DHT22;61549;37.044;22.128;2022-09-03T07:31:56;33.00;47.20
73322;DHT22;61549;37.044;22.128;2022-09-03T07:34:22;33.00;46.60
73322;DHT22;61549;37.044;22.128;2022-09-03T07:36:51;32.70;46.80
73322;DHT22;61549;37.044;22.128;2022-09-03T07:39:17;32.90;47.10
73322;DHT22;61549;37.044;22.128;2022-09-03T07:41:43;33.00;47.20
73322;DHT22;61549;37.044;22.128;2022-09-03T07:44:14;33.10;46.70
73322;DHT22;61549;37.044;22.128;2022-09-03T07:46:43;33.20;46.20
73322;DHT22;61549;37.044;22.128;2022-09-03T07:49:10;33.30;46.20
73322;DHT22;61549;37.044;22.128;2022-09-03T07:51:37;33.20;45.70
73322;DHT22;61549;37.044;22.128;2022-09-03T07:54:06;33.00;46.10
73322;DHT22;61549;37.044;22.128;2022-09-03T07:56:35;32.90;46.70
73322;DHT22;61549;37.044;22.128;2022-09-03T07:59:01;33.00;46.50
73322;DHT22;61549;37.044;22.128;2022-09-03T08:01:29;33.00;45.60
73322;DHT22;61549;37.044;22.128;2022-09-03T08:03:57;32.80;46.20
73322;DHT22;61549;37.044;22.128;2022-09-03T08:06:24;32.80;46.60
73322;DHT22;61549;37.044;22.128;2022-09-03T08:08:58;33.00;46.60
73322;DHT22;61549;37.044;22.128;2022-09-03T08:11:26;32.70;46.10
73322;DHT22;61549;37.044;22.128;2022-09-03T08:13:56;32.50;47.40
73322;DHT22;61549;37.044;22.128;2022-09-03T08:16:26;32.70;46.30
73322;DHT22;61549;37.044;22.128;2022-09-03T08:18:52;32.30;46.80
73322;DHT22;61549;37.044;22.128;2022-09-03T08:21:19;32.10;47.20
73322;DHT22;61549;37.044;22.128;2022-09-03T08:23:47;32.30;48.00
73322;DHT22;61549;37.044;22.128;2022-09-03T08:26:15;32.60;46.80
73322;DHT22;61549;37.044;22.128;2022-09-03T08:28:41;32.60;46.50
73322;DHT22;61549;37.044;22.128;2022-09-03T08:31:19;32.60;47.30
73322;DHT22;61549;37.044;22.128;2022-09-03T08:33:50;32.80;45.90
73322;DHT22;61549;37.044;22.128;2022-09-03T08:36:27;32.50;46.30
73322;DHT22;61549;37.044;22.128;2022-09-03T08:38:58;32.60;47.30
73322;DHT22;61549;37.044;22.128;2022-09-03T08:47:40;32.90;45.90
73322;DHT22;61549;37.044;22.128;2022-09-03T08:52:40;33.20;44.70
73322;DHT22;61549;37.044;22.128;2022-09-03T08:55:36;33.30;45.40
73322;DHT22;61549;37.044;22.128;2022-09-03T08:58:13;33.50;45.20
73322;DHT22;61549;37.044;22.128;2022-09-03T09:00:56;33.60;44.90
73322;DHT22;61549;37.044;22.128;2022-09-03T09:09:48;33.70;44.40
73322;DHT22;61549;37.044;22.128;2022-09-03T09:20:49;34.00;43.00
73322;DHT22;61549;37.044;22.128;2022-09-03T09:25:49;33.50;43.70
73322;DHT22;61549;37.044;22.128;2022-09-03T09:28:19;33.30;44.40
73322;DHT22;61549;37.044;22.128;2022-09-03T09:30:48;33.40;44.50
73322;DHT22;61549;37.044;22.128;2022-09-03T09:33:15;33.50;44.00
73322;DHT22;61549;37.044;22.128;2022-09-03T09:35:42;33.40;43.90
73322;DHT22;61549;37.044;22.128;2022-09-03T09:38:09;33.60;44.90
73322;DHT22;61549;37.044;22.128;2022-09-03T09:40:38;33.80;43.30
73322;DHT22;61549;37.044;22.128;2022-09-03T09:43:15;34.10;43.00
73322;DHT22;61549;37.044;22.128;2022-09-03T09:45:49;34.30;42.90
73322;DHT22;61549;37.044;22.128;2022-09-03T09:48:29;34.50;43.00
73322;DHT22;61549;37.044;22.128;2022-09-03T09:51:10;34.80;42.60
73322;DHT22;61549;37.044;22.128;2022-09-03T09:53:37;34.90;41.90
73322;DHT22;61549;37.044;22.128;2022-09-03T09:56:04;35.00;42.00
73322;DHT22;61549;37.044;22.128;2022-09-03T09:58:33;35.20;41.40
73322;DHT22;61549;37.044;22.128;2022-09-03T10:01:09;35.10;42.20
73322;DHT22;61549;37.044;22.128;2022-09-03T10:03:47;35.20;41.60
73322;DHT22;61549;37.044;22.128;2022-09-03T10:06:14;35.30;41.50
73322;DHT22;61549;37.044;22.128;2022-09-03T10:09:11;35.30;40.70
73322;DHT22;61549;37.044;22.128;2022-09-03T10:11:40;35.10;41.10
73322;DHT22;61549;37.044;22.128;2022-09-03T10:14:16;35.00;41.20
73322;DHT22;61549;37.044;22.128;2022-09-03T10:16:47;35.00;41.50
73322;DHT22;61549;37.044;22.128;2022-09-03T10:19:21;34.80;41.70
73322;DHT22;61549;37.044;22.128;2022-09-03T10:26:58;34.80;41.10
73322;DHT22;61549;37.044;22.128;2022-09-03T10:29:24;35.10;41.80
73322;DHT22;61549;37.044;22.128;2022-09-03T10:46:18;35.10;40.40
73322;DHT22;61549;37.044;22.128;2022-09-03T10:51:26;35.20;41.60
73322;DHT22;61549;37.044;22.128;2022-09-03T10:59:04;35.80;40.30
73322;DHT22;61549;37.044;22.128;2022-09-03T11:07:01;36.00;40.00
73322;DHT22;61549;37.044;22.128;2022-09-03T11:09:56;36.00;40.30
73322;DHT22;61549;37.044;22.128;2022-09-03T11:12:31;36.10;40.30
73322;DHT22;61549;37.044;22.128;2022-09-03T11:20:26;36.80;40.00
73322;DHT22;61549;37.044;22.128;2022-09-03T11:22:54;36.90;39.50
73322;DHT22;61549;37.044;22.128;2022-09-03T11:25:27;36.90;38.70
73322;DHT22;61549;37.044;22.128;2022-09-03T11:33:33;37.20;39.30
73322;DHT22;61549;37.044;22.128;2022-09-03T11:36:05;37.20;39.00
73322;DHT22;61549;37.044;22.128;2022-09-03T11:38:31;37.40;39.20
73322;DHT22;61549;37.044;22.128;2022-09-03T11:41:10;37.60;38.70
73322;DHT22;61549;37.044;22.128;2022-09-03T11:43:37;37.80;38.50
73322;DHT22;61549;37.044;22.128;2022-09-03T11:48:50;37.50;38.20
73322;DHT22;61549;37.044;22.128;2022-09-03T11:53:57;37.20;38.80
73322;DHT22;61549;37.044;22.128;2022-09-03T11:56:24;37.10;38.00
73322;DHT22;61549;37.044;22.128;2022-09-03T12:01:28;36.70;38.30
73322;DHT22;61549;37.044;22.128;2022-09-03T12:04:02;37.00;38.20
73322;DHT22;61549;37.044;22.128;2022-09-03T12:15:13;37.30;37.80
73322;DHT22;61549;37.044;22.128;2022-09-03T12:20:42;37.40;36.00
73322;DHT22;61549;37.044;22.128;2022-09-03T12:23:13;37.40;37.50
73322;DHT22;61549;37.044;22.128;2022-09-03T12:25:51;37.30;38.70
73322;DHT22;61549;37.044;22.128;2022-09-03T12:28:21;37.30;39.00
73322;DHT22;61549;37.044;22.128;2022-09-03T12:30:52;37.00;39.00
73322;DHT22;61549;37.044;22.128;2022-09-03T12:33:20;36.90;39.30
73322;DHT22;61549;37.044;22.128;2022-09-03T12:35:59;36.90;39.90
73322;DHT22;61549;37.044;22.128;2022-09-03T12:38:27;36.20;39.90
73322;DHT22;61549;37.044;22.128;2022-09-03T12:40:54;36.00;40.90
73322;DHT22;61549;37.044;22.128;2022-09-03T12:43:26;36.20;41.30
73322;DHT22;61549;37.044;22.128;2022-09-03T12:45:53;36.10;40.20
73322;DHT22;61549;37.044;22.128;2022-09-03T12:48:19;36.30;41.20
73322;DHT22;61549;37.044;22.128;2022-09-03T12:50:47;36.60;41.20
73322;DHT22;61549;37.044;22.128;2022-09-03T12:53:23;36.80;40.50
73322;DHT22;61549;37.044;22.128;2022-09-03T12:55:54;36.60;39.10
73322;DHT22;61549;37.044;22.128;2022-09-03T13:01:18;36.80;39.90
73322;DHT22;61549;37.044;22.128;2022-09-03T13:03:53;37.00;40.00
73322;DHT22;61549;37.044;22.128;2022-09-03T13:06:23;37.00;38.90
73322;DHT22;61549;37.044;22.128;2022-09-03T13:09:08;37.10;39.20
73322;DHT22;61549;37.044;22.128;2022-09-03T13:11:35;37.10;38.90
73322;DHT22;61549;37.044;22.128;2022-09-03T13:14:04;37.20;39.20
73322;DHT22;61549;37.044;22.128;2022-09-03T13:17:03;37.30;38.70
73322;DHT22;61549;37.044;22.128;2022-09-03T13:19:44;37.30;38.50
73322;DHT22;61549;37.044;22.128;2022-09-03T13:27:21;37.50;38.20
73322;DHT22;61549;37.044;22.128;2022-09-03T13:35:23;37.50;38.10
73322;DHT22;61549;37.044;22.128;2022-09-03T13:40:47;37.50;37.90
73322;DHT22;61549;37.044;22.128;2022-09-03T13:45:47;37.30;38.30
73322;DHT22;61549;37.044;22.128;2022-09-03T13:48:17;37.20;38.20
73322;DHT22;61549;37.044;22.128;2022-09-03T13:51:18;37.00;38.30
73322;DHT22;61549;37.044;22.128;2022-09-03T14:10:51;37.10;38.50
73322;DHT22;61549;37.044;22.128;2022-09-03T14:13:51;37.10;38.40
73322;DHT22;61549;37.044;22.128;2022-09-03T14:22:15;37.00;38.20
73322;DHT22;61549;37.044;22.128;2022-09-03T14:27:36;37.00;38.60
73322;DHT22;61549;37.044;22.128;2022-09-03T14:30:06;37.10;38.60
73322;DHT22;61549;37.044;22.128;2022-09-03T14:35:56;36.80;39.00
73322;DHT22;61549;37.044;22.128;2022-09-03T14:41:34;36.70;38.80
73322;DHT22;61549;37.044;22.128;2022-09-03T15:03:48;36.40;40.20
73322;DHT22;61549;37.044;22.128;2022-09-03T15:06:36;36.30;40.40
73322;DHT22;61549;37.044;22.128;2022-09-03T15:11:51;36.10;40.70
73322;DHT22;61549;37.044;22.128;2022-09-03T15:14:45;36.00;40.60
73322;DHT22;61549;37.044;22.128;2022-09-03T15:31:04;35.60;41.50
73322;DHT22;61549;37.044;22.128;2022-09-03T15:33:58;35.60;41.60
73322;DHT22;61549;37.044;22.128;2022-09-03T15:36:39;35.50;41.60
73322;DHT22;61549;37.044;22.128;2022-09-03T15:39:12;35.50;41.90
73322;DHT22;61549;37.044;22.128;2022-09-03T15:41:57;35.50;41.80
73322;DHT22;61549;37.044;22.128;2022-09-03T15:44:25;35.30;42.00
73322;DHT22;61549;37.044;22.128;2022-09-03T15:46:58;35.30;41.90
73322;DHT22;61549;37.044;22.128;2022-09-03T15:51:56;35.30;42.30
73322;DHT22;61549;37.044;22.128;2022-09-03T15:54:47;35.20;42.30
73322;DHT22;61549;37.044;22.128;2022-09-03T15:59:57;35.00;42.50
73322;DHT22;61549;37.044;22.128;2022-09-03T16:03:05;34.90;42.80
73322;DHT22;61549;37.044;22.128;2022-09-03T16:05:53;34.80;42.90
73322;DHT22;61549;37.044;22.128;2022-09-03T16:08:41;34.80;42.90
73322;DHT22;61549;37.044;22.128;2022-09-03T16:14:20;34.60;43.60
73322;DHT22;61549;37.044;22.128;2022-09-03T16:25:24;34.50;43.10
73322;DHT22;61549;37.044;22.128;2022-09-03T16:33:49;34.40;43.20
73322;DHT22;61549;37.044;22.128;2022-09-03T16:42:03;34.20;43.60
73322;DHT22;61549;37.044;22.128;2022-09-03T16:44:41;34.00;44.10
73322;DHT22;61549;37.044;22.128;2022-09-03T16:58:20;33.80;44.40
73322;DHT22;61549;37.044;22.128;2022-09-03T17:01:14;33.80;45.20
73322;DHT22;61549;37.044;22.128;2022-09-03T17:12:17;33.80;44.80
73322;DHT22;61549;37.044;22.128;2022-09-03T17:28:46;33.30;44.80
73322;DHT22;61549;37.044;22.128;2022-09-03T17:34:39;33.20;44.90
73322;DHT22;61549;37.044;22.128;2022-09-03T17:46:02;33.10;45.30
73322;DHT22;61549;37.044;22.128;2022-09-03T17:48:48;33.10;45.20
73322;DHT22;61549;37.044;22.128;2022-09-03T17:51:45;33.10;45.20
73322;DHT22;61549;37.044;22.128;2022-09-03T17:54:34;33.00;45.20
73322;DHT22;61549;37.044;22.128;2022-09-03T17:57:23;33.00;45.30
73322;DHT22;61549;37.044;22.128;2022-09-03T18:00:05;32.90;45.20
73322;DHT22;61549;37.044;22.128;2022-09-03T18:05:18;32.80;45.60
73322;DHT22;61549;37.044;22.128;2022-09-03T18:10:54;32.80;45.50
73322;DHT22;61549;37.044;22.128;2022-09-03T18:14:04;32.80;45.40
73322;DHT22;61549;37.044;22.128;2022-09-03T18:16:33;32.80;45.40
73322;DHT22;61549;37.044;22.128;2022-09-03T18:19:30;32.70;45.50
73322;DHT22;61549;37.044;22.128;2022-09-03T18:21:58;32.70;45.50
73322;DHT22;61549;37.044;22.128;2022-09-03T18:24:52;32.80;45.50
73322;DHT22;61549;37.044;22.128;2022-09-03T18:27:54;32.80;45.50
73322;DHT22;61549;37.044;22.128;2022-09-03T18:30:40;32.70;45.70
73322;DHT22;61549;37.044;22.128;2022-09-03T18:33:25;32.70;45.80
73322;DHT22;61549;37.044;22.128;2022-09-03T18:36:11;32.70;46.00
73322;DHT22;61549;37.044;22.128;2022-09-03T18:39:26;32.50;46.00
73322;DHT22;61549;37.044;22.128;2022-09-03T18:42:27;32.50;46.90
73322;DHT22;61549;37.044;22.128;2022-09-03T18:45:48;32.30;46.40
73322;DHT22;61549;37.044;22.128;2022-09-03T19:01:25;32.00;48.50
73322;DHT22;61549;37.044;22.128;2022-09-03T19:10:32;31.70;48.70
73322;DHT22;61549;37.044;22.128;2022-09-03T19:13:37;31.60;49.10
73322;DHT22;61549;37.044;22.128;2022-09-03T19:19:40;31.50;49.60
73322;DHT22;61549;37.044;22.128;2022-09-03T19:22:36;31.40;49.80
73322;DHT22;61549;37.044;22.128;2022-09-03T19:25:22;31.40;49.90
73322;DHT22;61549;37.044;22.128;2022-09-03T19:31:26;31.20;50.00
73322;DHT22;61549;37.044;22.128;2022-09-03T19:37:39;31.20;50.40
73322;DHT22;61549;37.044;22.128;2022-09-03T19:46:59;31.10;50.70
73322;DHT22;61549;37.044;22.128;2022-09-03T19:53:02;31.10;50.90
73322;DHT22;61549;37.044;22.128;2022-09-03T19:55:52;31.00;50.90
73322;DHT22;61549;37.044;22.128;2022-09-03T19:58:41;31.10;50.90
73322;DHT22;61549;37.044;22.128;2022-09-03T20:01:32;31.10;50.90
73322;DHT22;61549;37.044;22.128;2022-09-03T20:04:18;31.00;50.90
73322;DHT22;61549;37.044;22.128;2022-09-03T20:07:05;31.00;51.00
73322;DHT22;61549;37.044;22.128;2022-09-03T20:09:53;31.00;51.00
73322;DHT22;61549;37.044;22.128;2022-09-03T20:12:44;31.00;51.10
73322;DHT22;61549;37.044;22.128;2022-09-03T20:15:12;31.00;51.10
73322;DHT22;61549;37.044;22.128;2022-09-03T20:21:22;30.90;51.00
73322;DHT22;61549;37.044;22.128;2022-09-03T20:23:35;30.70;51.00
73322;DHT22;61549;37.044;22.128;2022-09-03T20:31:49;30.60;51.20
73322;DHT22;61549;37.044;22.128;2022-09-03T20:42:32;30.40;51.40
73322;DHT22;61549;37.044;22.128;2022-09-03T20:45:23;30.50;51.20
73322;DHT22;61549;37.044;22.128;2022-09-03T20:48:02;30.40;51.10
73322;DHT22;61549;37.044;22.128;2022-09-03T21:04:33;30.10;51.70
73322;DHT22;61549;37.044;22.128;2022-09-03T21:07:05;30.00;51.80
73322;DHT22;61549;37.044;22.128;2022-09-03T21:09:41;30.00;52.00
73322;DHT22;61549;37.044;22.128;2022-09-03T21:15:15;29.80;52.30
73322;DHT22;61549;37.044;22.128;2022-09-03T21:20:46;29.70;52.30
73322;DHT22;61549;37.044;22.128;2022-09-03T21:23:26;29.70;52.50
73322;DHT22;61549;37.044;22.128;2022-09-03T21:26:24;29.70;52.50
73322;DHT22;61549;37.044;22.128;2022-09-03T21:29:03;29.70;52.40
73322;DHT22;61549;37.044;22.128;2022-09-03T21:32:11;29.60;52.30
73322;DHT22;61549;37.044;22.128;2022-09-03T21:35:00;29.60;52.40
73322;DHT22;61549;37.044;22.128;2022-09-03T21:37:35;29.60;52.40
73322;DHT22;61549;37.044;22.128;2022-09-03T21:40:02;29.50;52.60
73322;DHT22;61549;37.044;22.128;2022-09-03T21:42:45;29.40;52.90
73322;DHT22;61549;37.044;22.128;2022-09-03T21:48:07;29.50;53.00
73322;DHT22;61549;37.044;22.128;2022-09-03T21:50:48;29.50;53.10
73322;DHT22;61549;37.044;22.128;2022-09-03T21:53:46;29.50;53.30
73322;DHT22;61549;37.044;22.128;2022-09-03T21:59:27;29.50;53.60
73322;DHT22;61549;37.044;22.128;2022-09-03T22:02:29;29.50;53.70
73322;DHT22;61549;37.044;22.128;2022-09-03T22:04:58;29.50;53.70
73322;DHT22;61549;37.044;22.128;2022-09-03T22:11:04;29.50;53.70
73322;DHT22;61549;37.044;22.128;2022-09-03T22:14:33;29.50;53.70
73322;DHT22;61549;37.044;22.128;2022-09-03T22:19:18;29.50;53.90
73322;DHT22;61549;37.044;22.128;2022-09-03T22:21:53;29.50;54.10
73322;DHT22;61549;37.044;22.128;2022-09-03T22:25:02;29.50;54.00
73322;DHT22;61549;37.044;22.128;2022-09-03T22:27:45;29.40;53.90
73322;DHT22;61549;37.044;22.128;2022-09-03T22:30:14;29.40;54.20
73322;DHT22;61549;37.044;22.128;2022-09-03T22:32:59;29.30;54.30
73322;DHT22;61549;37.044;22.128;2022-09-03T22:41:28;29.30;54.30
73322;DHT22;61549;37.044;22.128;2022-09-03T22:47:32;29.30;53.00
73322;DHT22;61549;37.044;22.128;2022-09-03T22:52:44;29.20;52.60
73322;DHT22;61549;37.044;22.128;2022-09-03T22:55:20;29.20;52.30
73322;DHT22;61549;37.044;22.128;2022-09-03T22:57:55;29.10;52.70
73322;DHT22;61549;37.044;22.128;2022-09-03T23:00:22;29.10;52.80
73322;DHT22;61549;37.044;22.128;2022-09-03T23:02:54;29.10;53.00